sensor_id;sensor_type;location;lat;lon;timestamp;temperature;humidity
84435;SHT30;74664;45.620;5.138;2024-01-30T00:00:07;11.40;62.27
84435;SHT30;74664;45.620;5.138;2024-01-30T00:02:34;11.39;62.37
84435;SHT30;74664;45.620;5.138;2024-01-30T00:05:03;11.42;62.46
84435;SHT30;74664;45.620;5.138;2024-01-30T00:07:30;11.40;62.58
84435;SHT30;74664;45.620;5.138;2024-01-30T00:09:58;11.39;62.43
84435;SHT30;74664;45.620;5.138;2024-01-30T00:12:25;11.42;62.71
84435;SHT30;74664;45.620;5.138;2024-01-30T00:14:51;11.43;62.69
84435;SHT30;74664;45.620;5.138;2024-01-30T00:17:18;11.40;62.88
84435;SHT30;74664;45.620;5.138;2024-01-30T00:19:46;11.42;62.81
84435;SHT30;74664;45.620;5.138;2024-01-30T00:22:14;11.42;63.02
84435;SHT30;74664;45.620;5.138;2024-01-30T00:24:41;11.42;63.03
84435;SHT30;74664;45.620;5.138;2024-01-30T00:27:08;11.40;63.15
84435;SHT30;74664;45.620;5.138;2024-01-30T00:29:34;11.39;63.23
84435;SHT30;74664;45.620;5.138;2024-01-30T00:32:01;11.43;63.32
84435;SHT30;74664;45.620;5.138;2024-01-30T00:34:28;11.39;63.33
84435;SHT30;74664;45.620;5.138;2024-01-30T00:36:55;11.39;63.52
84435;SHT30;74664;45.620;5.138;2024-01-30T00:39:23;11.40;63.42
84435;SHT30;74664;45.620;5.138;2024-01-30T00:41:49;11.40;63.61
84435;SHT30;74664;45.620;5.138;2024-01-30T00:44:17;11.42;63.62
84435;SHT30;74664;45.620;5.138;2024-01-30T00:46:44;11.43;63.63
84435;SHT30;74664;45.620;5.138;2024-01-30T00:49:11;11.42;63.76
84435;SHT30;74664;45.620;5.138;2024-01-30T00:51:37;11.43;63.94
84435;SHT30;74664;45.620;5.138;2024-01-30T00:54:04;11.46;64.04
84435;SHT30;74664;45.620;5.138;2024-01-30T00:56:33;11.47;64.05
84435;SHT30;74664;45.620;5.138;2024-01-30T00:59:00;11.47;63.90
84435;SHT30;74664;45.620;5.138;2024-01-30T01:01:26;11.49;64.16
84435;SHT30;74664;45.620;5.138;2024-01-30T01:03:53;11.52;64.11
84435;SHT30;74664;45.620;5.138;2024-01-30T01:06:20;11.53;64.38
84435;SHT30;74664;45.620;5.138;2024-01-30T01:08:47;11.55;64.42
84435;SHT30;74664;45.620;5.138;2024-01-30T01:11:13;11.55;64.18
84435;SHT30;74664;45.620;5.138;2024-01-30T01:13:41;11.56;64.13
84435;SHT30;74664;45.620;5.138;2024-01-30T01:16:08;11.58;64.56
84435;SHT30;74664;45.620;5.138;2024-01-30T01:18:35;11.58;64.45
84435;SHT30;74664;45.620;5.138;2024-01-30T01:21:01;11.58;64.47
84435;SHT30;74664;45.620;5.138;2024-01-30T01:23:28;11.58;64.62
84435;SHT30;74664;45.620;5.138;2024-01-30T01:25:54;11.56;64.63
84435;SHT30;74664;45.620;5.138;2024-01-30T01:28:21;11.58;64.59
84435;SHT30;74664;45.620;5.138;2024-01-30T01:30:49;11.59;64.60
84435;SHT30;74664;45.620;5.138;2024-01-30T01:33:16;11.59;64.39
84435;SHT30;74664;45.620;5.138;2024-01-30T01:35:43;11.58;64.47
84435;SHT30;74664;45.620;5.138;2024-01-30T01:38:10;11.58;64.60
84435;SHT30;74664;45.620;5.138;2024-01-30T01:40:37;11.56;64.63
84435;SHT30;74664;45.620;5.138;2024-01-30T01:43:05;11.58;64.73
84435;SHT30;74664;45.620;5.138;2024-01-30T01:45:31;11.56;64.88
84435;SHT30;74664;45.620;5.138;2024-01-30T01:47:59;11.53;64.95
84435;SHT30;74664;45.620;5.138;2024-01-30T01:50:26;11.55;64.99
84435;SHT30;74664;45.620;5.138;2024-01-30T01:52:54;11.56;65.05
84435;SHT30;74664;45.620;5.138;2024-01-30T01:55:22;11.56;65.01
84435;SHT30;74664;45.620;5.138;2024-01-30T01:57:52;11.55;64.99
84435;SHT30;74664;45.620;5.138;2024-01-30T02:00:19;11.55;64.94
84435;SHT30;74664;45.620;5.138;2024-01-30T02:02:46;11.56;65.02
84435;SHT30;74664;45.620;5.138;2024-01-30T02:05:15;11.53;64.88
84435;SHT30;74664;45.620;5.138;2024-01-30T02:07:42;11.52;64.91
84435;SHT30;74664;45.620;5.138;2024-01-30T02:10:10;11.53;64.93
84435;SHT30;74664;45.620;5.138;2024-01-30T02:12:37;11.52;64.97
84435;SHT30;74664;45.620;5.138;2024-01-30T02:15:04;11.50;64.98
84435;SHT30;74664;45.620;5.138;2024-01-30T02:17:32;11.52;64.98
84435;SHT30;74664;45.620;5.138;2024-01-30T02:19:59;11.52;65.03
84435;SHT30;74664;45.620;5.138;2024-01-30T02:22:27;11.52;64.94
84435;SHT30;74664;45.620;5.138;2024-01-30T02:24:54;11.49;64.94
84435;SHT30;74664;45.620;5.138;2024-01-30T02:27:21;11.49;64.99
84435;SHT30;74664;45.620;5.138;2024-01-30T02:29:48;11.49;64.96
84435;SHT30;74664;45.620;5.138;2024-01-30T02:32:14;11.50;64.93
84435;SHT30;74664;45.620;5.138;2024-01-30T02:34:41;11.49;64.99
84435;SHT30;74664;45.620;5.138;2024-01-30T02:37:08;11.47;64.98
84435;SHT30;74664;45.620;5.138;2024-01-30T02:39:36;11.43;64.94
84435;SHT30;74664;45.620;5.138;2024-01-30T02:42:03;11.42;64.97
84435;SHT30;74664;45.620;5.138;2024-01-30T02:44:30;11.44;64.94
84435;SHT30;74664;45.620;5.138;2024-01-30T02:46:57;11.40;64.98
84435;SHT30;74664;45.620;5.138;2024-01-30T02:49:23;11.42;64.94
84435;SHT30;74664;45.620;5.138;2024-01-30T02:51:51;11.39;64.98
84435;SHT30;74664;45.620;5.138;2024-01-30T02:54:17;11.38;64.97
84435;SHT30;74664;45.620;5.138;2024-01-30T02:56:45;11.36;65.10
84435;SHT30;74664;45.620;5.138;2024-01-30T02:59:13;11.35;65.10
84435;SHT30;74664;45.620;5.138;2024-01-30T03:01:43;11.33;65.12
84435;SHT30;74664;45.620;5.138;2024-01-30T03:04:10;11.36;65.14
84435;SHT30;74664;45.620;5.138;2024-01-30T03:06:37;11.33;65.13
84435;SHT30;74664;45.620;5.138;2024-01-30T03:09:04;11.33;65.17
84435;SHT30;74664;45.620;5.138;2024-01-30T03:11:32;11.33;65.11
84435;SHT30;74664;45.620;5.138;2024-01-30T03:14:00;11.31;65.19
84435;SHT30;74664;45.620;5.138;2024-01-30T03:16:26;11.29;65.10
84435;SHT30;74664;45.620;5.138;2024-01-30T03:18:53;11.31;65.10
84435;SHT30;74664;45.620;5.138;2024-01-30T03:21:20;11.26;65.08
84435;SHT30;74664;45.620;5.138;2024-01-30T03:23:47;11.26;65.15
84435;SHT30;74664;45.620;5.138;2024-01-30T03:26:13;11.25;65.16
84435;SHT30;74664;45.620;5.138;2024-01-30T03:28:40;11.23;65.02
84435;SHT30;74664;45.620;5.138;2024-01-30T03:31:08;11.21;65.25
84435;SHT30;74664;45.620;5.138;2024-01-30T03:33:36;11.23;65.14
84435;SHT30;74664;45.620;5.138;2024-01-30T03:36:04;11.21;65.15
84435;SHT30;74664;45.620;5.138;2024-01-30T03:38:30;11.21;65.16
84435;SHT30;74664;45.620;5.138;2024-01-30T03:40:58;11.21;65.23
84435;SHT30;74664;45.620;5.138;2024-01-30T03:43:25;11.19;65.11
84435;SHT30;74664;45.620;5.138;2024-01-30T03:45:52;11.16;65.20
84435;SHT30;74664;45.620;5.138;2024-01-30T03:48:21;11.19;65.24
84435;SHT30;74664;45.620;5.138;2024-01-30T03:50:48;11.18;65.16
84435;SHT30;74664;45.620;5.138;2024-01-30T03:53:14;11.18;65.19
84435;SHT30;74664;45.620;5.138;2024-01-30T03:55:41;11.18;65.19
84435;SHT30;74664;45.620;5.138;2024-01-30T03:58:09;11.15;65.19
84435;SHT30;74664;45.620;5.138;2024-01-30T04:00:35;11.14;65.14
84435;SHT30;74664;45.620;5.138;2024-01-30T04:03:02;11.14;65.17
84435;SHT30;74664;45.620;5.138;2024-01-30T04:05:30;11.14;65.19
84435;SHT30;74664;45.620;5.138;2024-01-30T04:07:57;11.12;65.12
84435;SHT30;74664;45.620;5.138;2024-01-30T04:10:24;11.12;65.17
84435;SHT30;74664;45.620;5.138;2024-01-30T04:12:51;11.12;65.12
84435;SHT30;74664;45.620;5.138;2024-01-30T04:15:19;11.12;65.09
84435;SHT30;74664;45.620;5.138;2024-01-30T04:17:45;11.10;65.09
84435;SHT30;74664;45.620;5.138;2024-01-30T04:20:14;11.08;65.15
84435;SHT30;74664;45.620;5.138;2024-01-30T04:22:43;11.08;65.14
84435;SHT30;74664;45.620;5.138;2024-01-30T04:25:10;11.05;65.14
84435;SHT30;74664;45.620;5.138;2024-01-30T04:27:37;11.07;65.17
84435;SHT30;74664;45.620;5.138;2024-01-30T04:30:04;11.05;65.12
84435;SHT30;74664;45.620;5.138;2024-01-30T04:32:32;11.08;65.15
84435;SHT30;74664;45.620;5.138;2024-01-30T04:34:58;11.02;65.12
84435;SHT30;74664;45.620;5.138;2024-01-30T04:37:25;11.02;65.15
84435;SHT30;74664;45.620;5.138;2024-01-30T04:39:53;11.04;65.22
84435;SHT30;74664;45.620;5.138;2024-01-30T04:42:20;11.02;65.18
84435;SHT30;74664;45.620;5.138;2024-01-30T04:44:46;11.02;65.10
84435;SHT30;74664;45.620;5.138;2024-01-30T04:47:13;11.00;65.11
84435;SHT30;74664;45.620;5.138;2024-01-30T04:49:40;10.98;65.19
84435;SHT30;74664;45.620;5.138;2024-01-30T04:52:07;10.98;65.15
84435;SHT30;74664;45.620;5.138;2024-01-30T04:54:34;10.97;65.22
84435;SHT30;74664;45.620;5.138;2024-01-30T04:57:03;10.95;65.22
84435;SHT30;74664;45.620;5.138;2024-01-30T04:59:31;10.94;65.24
84435;SHT30;74664;45.620;5.138;2024-01-30T05:01:57;10.94;65.26
84435;SHT30;74664;45.620;5.138;2024-01-30T05:04:24;10.92;65.32
84435;SHT30;74664;45.620;5.138;2024-01-30T05:06:51;10.91;65.36
84435;SHT30;74664;45.620;5.138;2024-01-30T05:09:17;10.90;65.43
84435;SHT30;74664;45.620;5.138;2024-01-30T05:11:44;10.85;65.44
84435;SHT30;74664;45.620;5.138;2024-01-30T05:14:12;10.85;65.53
84435;SHT30;74664;45.620;5.138;2024-01-30T05:16:40;10.82;65.55
84435;SHT30;74664;45.620;5.138;2024-01-30T05:19:08;10.81;65.56
84435;SHT30;74664;45.620;5.138;2024-01-30T05:21:35;10.80;65.64
84435;SHT30;74664;45.620;5.138;2024-01-30T05:24:01;10.80;65.63
84435;SHT30;74664;45.620;5.138;2024-01-30T05:26:28;10.74;65.67
84435;SHT30;74664;45.620;5.138;2024-01-30T05:28:55;10.74;65.72
84435;SHT30;74664;45.620;5.138;2024-01-30T05:31:23;10.71;65.76
84435;SHT30;74664;45.620;5.138;2024-01-30T05:33:51;10.74;65.82
84435;SHT30;74664;45.620;5.138;2024-01-30T05:36:18;10.71;65.78
84435;SHT30;74664;45.620;5.138;2024-01-30T05:38:46;10.67;65.80
84435;SHT30;74664;45.620;5.138;2024-01-30T05:41:13;10.64;65.86
84435;SHT30;74664;45.620;5.138;2024-01-30T05:43:40;10.65;65.88
84435;SHT30;74664;45.620;5.138;2024-01-30T05:46:07;10.65;65.89
84435;SHT30;74664;45.620;5.138;2024-01-30T05:48:35;10.63;65.92
84435;SHT30;74664;45.620;5.138;2024-01-30T05:51:02;10.60;65.94
84435;SHT30;74664;45.620;5.138;2024-01-30T05:53:29;10.57;66.03
84435;SHT30;74664;45.620;5.138;2024-01-30T05:55:56;10.59;66.01
84435;SHT30;74664;45.620;5.138;2024-01-30T05:58:22;10.56;66.12
84435;SHT30;74664;45.620;5.138;2024-01-30T06:00:49;10.56;66.12
84435;SHT30;74664;45.620;5.138;2024-01-30T06:03:16;10.53;66.17
84435;SHT30;74664;45.620;5.138;2024-01-30T06:05:44;10.50;66.32
84435;SHT30;74664;45.620;5.138;2024-01-30T06:08:10;10.47;66.31
84435;SHT30;74664;45.620;5.138;2024-01-30T06:10:37;10.46;66.33
84435;SHT30;74664;45.620;5.138;2024-01-30T06:13:04;10.43;66.38
84435;SHT30;74664;45.620;5.138;2024-01-30T06:15:32;10.42;66.51
84435;SHT30;74664;45.620;5.138;2024-01-30T06:17:59;10.37;66.61
84435;SHT30;74664;45.620;5.138;2024-01-30T06:20:26;10.36;66.76
84435;SHT30;74664;45.620;5.138;2024-01-30T06:22:54;10.29;66.54
84435;SHT30;74664;45.620;5.138;2024-01-30T06:25:20;10.22;66.94
84435;SHT30;74664;45.620;5.138;2024-01-30T06:27:47;10.10;66.90
84435;SHT30;74664;45.620;5.138;2024-01-30T06:30:15;10.01;67.14
84435;SHT30;74664;45.620;5.138;2024-01-30T06:32:42;9.95;67.05
84435;SHT30;74664;45.620;5.138;2024-01-30T06:35:08;9.85;67.52
84435;SHT30;74664;45.620;5.138;2024-01-30T06:37:35;9.75;67.73
84435;SHT30;74664;45.620;5.138;2024-01-30T06:40:05;9.67;68.01
84435;SHT30;74664;45.620;5.138;2024-01-30T06:42:31;9.64;68.08
84435;SHT30;74664;45.620;5.138;2024-01-30T06:44:58;9.59;68.21
84435;SHT30;74664;45.620;5.138;2024-01-30T06:47:25;9.52;68.21
84435;SHT30;74664;45.620;5.138;2024-01-30T06:49:52;9.44;68.31
84435;SHT30;74664;45.620;5.138;2024-01-30T06:52:18;9.33;68.63
84435;SHT30;74664;45.620;5.138;2024-01-30T06:54:45;9.30;68.60
84435;SHT30;74664;45.620;5.138;2024-01-30T06:57:13;9.22;69.07
84435;SHT30;74664;45.620;5.138;2024-01-30T06:59:40;9.16;69.00
84435;SHT30;74664;45.620;5.138;2024-01-30T07:02:09;9.14;69.19
84435;SHT30;74664;45.620;5.138;2024-01-30T07:04:36;9.14;69.15
84435;SHT30;74664;45.620;5.138;2024-01-30T07:07:04;9.10;69.11
84435;SHT30;74664;45.620;5.138;2024-01-30T07:09:31;9.06;69.44
84435;SHT30;74664;45.620;5.138;2024-01-30T07:11:58;9.04;69.55
84435;SHT30;74664;45.620;5.138;2024-01-30T07:14:26;8.97;69.56
84435;SHT30;74664;45.620;5.138;2024-01-30T07:16:52;8.99;69.83
84435;SHT30;74664;45.620;5.138;2024-01-30T07:19:19;8.97;69.93
84435;SHT30;74664;45.620;5.138;2024-01-30T07:21:46;8.93;70.06
84435;SHT30;74664;45.620;5.138;2024-01-30T07:24:12;8.97;70.23
84435;SHT30;74664;45.620;5.138;2024-01-30T07:26:39;8.95;70.41
84435;SHT30;74664;45.620;5.138;2024-01-30T07:29:06;8.96;70.58
84435;SHT30;74664;45.620;5.138;2024-01-30T07:31:34;8.97;70.38
84435;SHT30;74664;45.620;5.138;2024-01-30T07:34:01;9.00;70.26
84435;SHT30;74664;45.620;5.138;2024-01-30T07:36:28;8.99;70.71
84435;SHT30;74664;45.620;5.138;2024-01-30T07:38:54;9.00;70.87
84435;SHT30;74664;45.620;5.138;2024-01-30T07:41:21;9.04;71.02
84435;SHT30;74664;45.620;5.138;2024-01-30T07:43:49;9.10;70.90
84435;SHT30;74664;45.620;5.138;2024-01-30T07:46:16;9.13;71.05
84435;SHT30;74664;45.620;5.138;2024-01-30T07:48:44;9.20;70.97
84435;SHT30;74664;45.620;5.138;2024-01-30T07:51:11;9.22;71.15
84435;SHT30;74664;45.620;5.138;2024-01-30T07:53:37;9.30;70.92
84435;SHT30;74664;45.620;5.138;2024-01-30T07:56:05;9.37;70.63
84435;SHT30;74664;45.620;5.138;2024-01-30T07:58:32;9.38;70.85
84435;SHT30;74664;45.620;5.138;2024-01-30T08:00:59;9.43;70.81
84435;SHT30;74664;45.620;5.138;2024-01-30T08:03:26;9.47;70.81
84435;SHT30;74664;45.620;5.138;2024-01-30T08:05:54;9.50;70.67
84435;SHT30;74664;45.620;5.138;2024-01-30T08:08:21;9.55;70.55
84435;SHT30;74664;45.620;5.138;2024-01-30T08:10:48;9.54;70.61
84435;SHT30;74664;45.620;5.138;2024-01-30T08:13:15;9.58;70.62
84435;SHT30;74664;45.620;5.138;2024-01-30T08:15:42;9.61;70.83
84435;SHT30;74664;45.620;5.138;2024-01-30T08:18:08;9.65;70.59
84435;SHT30;74664;45.620;5.138;2024-01-30T08:20:35;9.67;70.65
84435;SHT30;74664;45.620;5.138;2024-01-30T08:23:03;9.68;70.55
84435;SHT30;74664;45.620;5.138;2024-01-30T08:25:30;9.75;70.56
84435;SHT30;74664;45.620;5.138;2024-01-30T08:27:57;9.79;70.54
84435;SHT30;74664;45.620;5.138;2024-01-30T08:30:24;9.84;70.80
84435;SHT30;74664;45.620;5.138;2024-01-30T08:32:50;9.88;70.77
84435;SHT30;74664;45.620;5.138;2024-01-30T08:35:17;9.93;70.67
84435;SHT30;74664;45.620;5.138;2024-01-30T08:37:44;9.99;70.56
84435;SHT30;74664;45.620;5.138;2024-01-30T08:40:12;10.05;70.53
84435;SHT30;74664;45.620;5.138;2024-01-30T08:42:39;10.13;70.73
84435;SHT30;74664;45.620;5.138;2024-01-30T08:45:06;10.19;70.82
84435;SHT30;74664;45.620;5.138;2024-01-30T08:47:33;10.24;70.66
84435;SHT30;74664;45.620;5.138;2024-01-30T08:50:00;10.33;70.74
84435;SHT30;74664;45.620;5.138;2024-01-30T08:52:27;10.42;70.51
84435;SHT30;74664;45.620;5.138;2024-01-30T08:54:53;10.47;70.42
84435;SHT30;74664;45.620;5.138;2024-01-30T08:57:22;10.56;70.50
84435;SHT30;74664;45.620;5.138;2024-01-30T08:59:48;10.64;70.26
84435;SHT30;74664;45.620;5.138;2024-01-30T09:02:15;10.71;70.12
84435;SHT30;74664;45.620;5.138;2024-01-30T09:04:43;10.82;70.19
84435;SHT30;74664;45.620;5.138;2024-01-30T09:07:10;10.90;69.98
84435;SHT30;74664;45.620;5.138;2024-01-30T09:09:38;10.97;69.88
84435;SHT30;74664;45.620;5.138;2024-01-30T09:12:07;11.02;69.79
84435;SHT30;74664;45.620;5.138;2024-01-30T09:14:36;11.10;69.65
84435;SHT30;74664;45.620;5.138;2024-01-30T09:17:03;11.18;69.35
84435;SHT30;74664;45.620;5.138;2024-01-30T09:19:30;11.22;69.38
84435;SHT30;74664;45.620;5.138;2024-01-30T09:21:57;11.28;69.23
84435;SHT30;74664;45.620;5.138;2024-01-30T09:24:25;11.33;69.10
84435;SHT30;74664;45.620;5.138;2024-01-30T09:26:51;11.39;68.97
84435;SHT30;74664;45.620;5.138;2024-01-30T09:29:18;11.44;68.92
84435;SHT30;74664;45.620;5.138;2024-01-30T09:31:46;11.49;68.87
84435;SHT30;74664;45.620;5.138;2024-01-30T09:34:13;11.53;68.79
84435;SHT30;74664;45.620;5.138;2024-01-30T09:36:40;11.59;68.69
84435;SHT30;74664;45.620;5.138;2024-01-30T09:39:07;11.62;68.63
84435;SHT30;74664;45.620;5.138;2024-01-30T09:41:38;11.65;68.54
84435;SHT30;74664;45.620;5.138;2024-01-30T09:44:09;11.67;68.41
84435;SHT30;74664;45.620;5.138;2024-01-30T09:46:38;11.74;68.39
84435;SHT30;74664;45.620;5.138;2024-01-30T09:49:08;11.79;68.30
84435;SHT30;74664;45.620;5.138;2024-01-30T09:51:35;11.81;68.19
84435;SHT30;74664;45.620;5.138;2024-01-30T09:54:03;11.84;68.27
84435;SHT30;74664;45.620;5.138;2024-01-30T09:56:29;11.89;68.16
84435;SHT30;74664;45.620;5.138;2024-01-30T09:58:56;11.94;68.01
84435;SHT30;74664;45.620;5.138;2024-01-30T10:01:23;11.95;67.89
84435;SHT30;74664;45.620;5.138;2024-01-30T10:03:50;11.98;67.77
84435;SHT30;74664;45.620;5.138;2024-01-30T10:06:20;12.00;67.74
84435;SHT30;74664;45.620;5.138;2024-01-30T10:08:47;12.05;67.60
84435;SHT30;74664;45.620;5.138;2024-01-30T10:11:14;12.07;67.60
84435;SHT30;74664;45.620;5.138;2024-01-30T10:13:41;12.13;67.58
84435;SHT30;74664;45.620;5.138;2024-01-30T10:16:07;12.14;67.56
84435;SHT30;74664;45.620;5.138;2024-01-30T10:18:34;12.22;67.42
84435;SHT30;74664;45.620;5.138;2024-01-30T10:21:01;12.28;67.30
84435;SHT30;74664;45.620;5.138;2024-01-30T10:23:29;12.34;67.19
84435;SHT30;74664;45.620;5.138;2024-01-30T10:25:57;12.37;67.02
84435;SHT30;74664;45.620;5.138;2024-01-30T10:28:27;12.42;66.90
84435;SHT30;74664;45.620;5.138;2024-01-30T10:30:58;12.49;66.70
84435;SHT30;74664;45.620;5.138;2024-01-30T10:33:26;12.58;66.74
84435;SHT30;74664;45.620;5.138;2024-01-30T10:35:55;12.63;66.56
84435;SHT30;74664;45.620;5.138;2024-01-30T10:38:29;12.70;66.34
84435;SHT30;74664;45.620;5.138;2024-01-30T10:40:57;12.75;66.22
84435;SHT30;74664;45.620;5.138;2024-01-30T10:43:31;12.85;66.09
84435;SHT30;74664;45.620;5.138;2024-01-30T10:46:05;12.92;65.89
84435;SHT30;74664;45.620;5.138;2024-01-30T10:48:36;12.95;65.54
84435;SHT30;74664;45.620;5.138;2024-01-30T10:51:05;12.99;65.38
84435;SHT30;74664;45.620;5.138;2024-01-30T10:53:34;13.04;65.21
84435;SHT30;74664;45.620;5.138;2024-01-30T10:56:01;13.06;65.26
84435;SHT30;74664;45.620;5.138;2024-01-30T10:58:29;13.07;65.11
84435;SHT30;74664;45.620;5.138;2024-01-30T11:00:56;13.09;64.98
84435;SHT30;74664;45.620;5.138;2024-01-30T11:03:23;13.07;64.76
84435;SHT30;74664;45.620;5.138;2024-01-30T11:05:50;13.09;64.55
84435;SHT30;74664;45.620;5.138;2024-01-30T11:08:22;13.07;64.51
84435;SHT30;74664;45.620;5.138;2024-01-30T11:10:55;13.09;64.30
84435;SHT30;74664;45.620;5.138;2024-01-30T11:13:22;13.09;64.32
84435;SHT30;74664;45.620;5.138;2024-01-30T11:15:48;13.10;64.26
84435;SHT30;74664;45.620;5.138;2024-01-30T11:18:23;13.11;64.10
84435;SHT30;74664;45.620;5.138;2024-01-30T11:20:49;13.14;63.97
84435;SHT30;74664;45.620;5.138;2024-01-30T11:23:16;13.14;63.81
84435;SHT30;74664;45.620;5.138;2024-01-30T11:25:43;13.16;63.74
84435;SHT30;74664;45.620;5.138;2024-01-30T11:28:15;13.18;63.37
84435;SHT30;74664;45.620;5.138;2024-01-30T11:30:42;13.18;63.34
84435;SHT30;74664;45.620;5.138;2024-01-30T11:33:11;13.20;62.91
84435;SHT30;74664;45.620;5.138;2024-01-30T11:35:39;13.18;62.80
84435;SHT30;74664;45.620;5.138;2024-01-30T11:38:07;13.20;62.71
84435;SHT30;74664;45.620;5.138;2024-01-30T11:40:37;13.20;62.47
84435;SHT30;74664;45.620;5.138;2024-01-30T11:43:05;13.24;62.52
84435;SHT30;74664;45.620;5.138;2024-01-30T11:45:34;13.26;62.45
84435;SHT30;74664;45.620;5.138;2024-01-30T11:48:03;13.26;62.22
84435;SHT30;74664;45.620;5.138;2024-01-30T11:50:30;13.27;61.93
84435;SHT30;74664;45.620;5.138;2024-01-30T11:52:58;13.28;62.45
84435;SHT30;74664;45.620;5.138;2024-01-30T11:55:25;13.30;61.89
84435;SHT30;74664;45.620;5.138;2024-01-30T11:57:55;13.30;61.79
84435;SHT30;74664;45.620;5.138;2024-01-30T12:00:22;13.33;61.60
84435;SHT30;74664;45.620;5.138;2024-01-30T12:02:53;13.38;61.62
84435;SHT30;74664;45.620;5.138;2024-01-30T12:05:22;13.43;61.50
84435;SHT30;74664;45.620;5.138;2024-01-30T12:07:49;13.46;61.16
84435;SHT30;74664;45.620;5.138;2024-01-30T12:10:16;13.50;61.16
84435;SHT30;74664;45.620;5.138;2024-01-30T12:12:45;13.50;61.29
84435;SHT30;74664;45.620;5.138;2024-01-30T12:15:13;13.55;61.33
84435;SHT30;74664;45.620;5.138;2024-01-30T12:17:40;13.55;60.86
84435;SHT30;74664;45.620;5.138;2024-01-30T12:20:09;13.59;60.72
84435;SHT30;74664;45.620;5.138;2024-01-30T12:22:37;13.59;60.78
84435;SHT30;74664;45.620;5.138;2024-01-30T12:25:05;13.62;60.75
84435;SHT30;74664;45.620;5.138;2024-01-30T12:27:32;13.65;60.56
84435;SHT30;74664;45.620;5.138;2024-01-30T12:29:58;13.69;59.62
84435;SHT30;74664;45.620;5.138;2024-01-30T12:32:25;13.68;59.64
84435;SHT30;74664;45.620;5.138;2024-01-30T12:34:55;13.72;59.58
84435;SHT30;74664;45.620;5.138;2024-01-30T12:37:23;13.74;59.40
84435;SHT30;74664;45.620;5.138;2024-01-30T12:39:51;13.78;59.53
84435;SHT30;74664;45.620;5.138;2024-01-30T12:42:19;13.82;59.08
84435;SHT30;74664;45.620;5.138;2024-01-30T12:44:47;13.88;59.09
84435;SHT30;74664;45.620;5.138;2024-01-30T12:47:14;13.92;58.39
84435;SHT30;74664;45.620;5.138;2024-01-30T12:49:42;13.94;58.47
84435;SHT30;74664;45.620;5.138;2024-01-30T12:52:09;13.98;58.28
84435;SHT30;74664;45.620;5.138;2024-01-30T12:54:37;14.02;57.68
84435;SHT30;74664;45.620;5.138;2024-01-30T12:57:05;14.05;57.71
84435;SHT30;74664;45.620;5.138;2024-01-30T12:59:31;14.09;56.95
84435;SHT30;74664;45.620;5.138;2024-01-30T13:02:00;14.09;56.59
84435;SHT30;74664;45.620;5.138;2024-01-30T13:04:27;14.12;56.75
84435;SHT30;74664;45.620;5.138;2024-01-30T13:06:54;14.13;56.74
84435;SHT30;74664;45.620;5.138;2024-01-30T13:09:21;14.15;56.40
84435;SHT30;74664;45.620;5.138;2024-01-30T13:11:49;14.16;56.11
84435;SHT30;74664;45.620;5.138;2024-01-30T13:14:16;14.20;55.89
84435;SHT30;74664;45.620;5.138;2024-01-30T13:16:43;14.22;56.00
84435;SHT30;74664;45.620;5.138;2024-01-30T13:19:09;14.26;55.59
84435;SHT30;74664;45.620;5.138;2024-01-30T13:21:36;14.33;56.00
84435;SHT30;74664;45.620;5.138;2024-01-30T13:24:03;14.37;55.94
84435;SHT30;74664;45.620;5.138;2024-01-30T13:26:31;14.40;55.63
84435;SHT30;74664;45.620;5.138;2024-01-30T13:28:59;14.46;54.54
84435;SHT30;74664;45.620;5.138;2024-01-30T13:31:26;14.50;54.90
84435;SHT30;74664;45.620;5.138;2024-01-30T13:33:53;14.51;54.88
84435;SHT30;74664;45.620;5.138;2024-01-30T13:36:21;14.56;54.91
84435;SHT30;74664;45.620;5.138;2024-01-30T13:38:48;14.61;54.44
84435;SHT30;74664;45.620;5.138;2024-01-30T13:41:15;14.64;54.32
84435;SHT30;74664;45.620;5.138;2024-01-30T13:43:42;14.63;54.40
84435;SHT30;74664;45.620;5.138;2024-01-30T13:46:11;14.68;53.99
84435;SHT30;74664;45.620;5.138;2024-01-30T13:48:37;14.68;54.16
84435;SHT30;74664;45.620;5.138;2024-01-30T13:51:04;14.70;53.94
84435;SHT30;74664;45.620;5.138;2024-01-30T13:53:31;14.71;53.36
84435;SHT30;74664;45.620;5.138;2024-01-30T13:55:58;14.70;53.04
84435;SHT30;74664;45.620;5.138;2024-01-30T13:58:24;14.71;53.25
84435;SHT30;74664;45.620;5.138;2024-01-30T14:00:51;14.74;53.12
84435;SHT30;74664;45.620;5.138;2024-01-30T14:03:20;14.71;52.95
84435;SHT30;74664;45.620;5.138;2024-01-30T14:05:47;14.77;52.90
84435;SHT30;74664;45.620;5.138;2024-01-30T14:08:14;14.78;52.71
84435;SHT30;74664;45.620;5.138;2024-01-30T14:10:41;14.81;52.82
84435;SHT30;74664;45.620;5.138;2024-01-30T14:13:07;14.84;52.54
84435;SHT30;74664;45.620;5.138;2024-01-30T14:15:34;14.89;52.78
84435;SHT30;74664;45.620;5.138;2024-01-30T14:18:01;14.92;52.62
84435;SHT30;74664;45.620;5.138;2024-01-30T14:20:29;14.91;52.60
84435;SHT30;74664;45.620;5.138;2024-01-30T14:22:56;14.89;52.88
84435;SHT30;74664;45.620;5.138;2024-01-30T14:25:22;14.88;52.68
84435;SHT30;74664;45.620;5.138;2024-01-30T14:27:49;14.89;52.27
84435;SHT30;74664;45.620;5.138;2024-01-30T14:30:17;14.89;52.37
84435;SHT30;74664;45.620;5.138;2024-01-30T14:32:43;14.87;51.81
84435;SHT30;74664;45.620;5.138;2024-01-30T14:35:10;14.83;52.09
84435;SHT30;74664;45.620;5.138;2024-01-30T14:37:39;14.84;51.98
84435;SHT30;74664;45.620;5.138;2024-01-30T14:40:06;14.77;51.29
84435;SHT30;74664;45.620;5.138;2024-01-30T14:42:33;14.78;51.34
84435;SHT30;74664;45.620;5.138;2024-01-30T14:45:01;14.83;51.89
84435;SHT30;74664;45.620;5.138;2024-01-30T14:47:28;14.81;51.92
84435;SHT30;74664;45.620;5.138;2024-01-30T14:49:54;14.81;51.98
84435;SHT30;74664;45.620;5.138;2024-01-30T14:52:21;14.84;51.46
84435;SHT30;74664;45.620;5.138;2024-01-30T14:54:49;14.83;51.38
84435;SHT30;74664;45.620;5.138;2024-01-30T14:57:16;14.85;51.40
84435;SHT30;74664;45.620;5.138;2024-01-30T14:59:43;14.88;51.62
84435;SHT30;74664;45.620;5.138;2024-01-30T15:02:09;14.85;51.38
84435;SHT30;74664;45.620;5.138;2024-01-30T15:04:36;14.84;51.23
84435;SHT30;74664;45.620;5.138;2024-01-30T15:07:03;14.85;50.95
84435;SHT30;74664;45.620;5.138;2024-01-30T15:09:30;14.85;50.84
84435;SHT30;74664;45.620;5.138;2024-01-30T15:11:58;14.87;50.74
84435;SHT30;74664;45.620;5.138;2024-01-30T15:14:25;14.88;50.64
84435;SHT30;74664;45.620;5.138;2024-01-30T15:16:52;14.87;50.75
84435;SHT30;74664;45.620;5.138;2024-01-30T15:19:18;14.87;50.94
84435;SHT30;74664;45.620;5.138;2024-01-30T15:21:45;14.88;50.78
84435;SHT30;74664;45.620;5.138;2024-01-30T15:24:14;14.87;50.46
84435;SHT30;74664;45.620;5.138;2024-01-30T15:26:43;14.87;50.75
84435;SHT30;74664;45.620;5.138;2024-01-30T15:29:11;14.89;50.87
84435;SHT30;74664;45.620;5.138;2024-01-30T15:31:38;14.92;50.91